sensor_id;sensor_type;location;lat;lon;timestamp;temperature;humidity
2212;DHT22;48849;48.758;9.158;2023-09-12T00:00:05;22.60;99.90
2212;DHT22;48849;48.758;9.158;2023-09-12T00:02:32;22.60;99.90
2212;DHT22;48849;48.758;9.158;2023-09-12T00:04:59;22.60;99.90
2212;DHT22;48849;48.758;9.158;2023-09-12T00:07:27;22.60;99.90
2212;DHT22;48849;48.758;9.158;2023-09-12T00:09:54;22.60;99.90
2212;DHT22;48849;48.758;9.158;2023-09-12T00:12:23;22.60;99.90
2212;DHT22;48849;48.758;9.158;2023-09-12T00:14:50;22.60;99.90
2212;DHT22;48849;48.758;9.158;2023-09-12T00:17:17;22.60;99.90
2212;DHT22;48849;48.758;9.158;2023-09-12T00:19:44;22.60;99.90
2212;DHT22;48849;48.758;9.158;2023-09-12T00:22:11;22.60;99.90
2212;DHT22;48849;48.758;9.158;2023-09-12T00:24:39;22.60;99.90
2212;DHT22;48849;48.758;9.158;2023-09-12T00:27:06;22.60;99.90
2212;DHT22;48849;48.758;9.158;2023-09-12T00:29:32;22.70;99.90
2212;DHT22;48849;48.758;9.158;2023-09-12T00:31:59;22.60;99.90
2212;DHT22;48849;48.758;9.158;2023-09-12T00:34:26;22.60;99.90
2212;DHT22;48849;48.758;9.158;2023-09-12T00:36:53;22.60;99.90
2212;DHT22;48849;48.758;9.158;2023-09-12T00:39:19;22.60;99.90
2212;DHT22;48849;48.758;9.158;2023-09-12T00:41:48;22.60;99.90
2212;DHT22;48849;48.758;9.158;2023-09-12T00:44:14;22.60;99.90
2212;DHT22;48849;48.758;9.158;2023-09-12T00:46:42;22.60;99.90
2212;DHT22;48849;48.758;9.158;2023-09-12T00:49:10;22.60;99.90
2212;DHT22;48849;48.758;9.158;2023-09-12T00:51:38;22.60;99.90
2212;DHT22;48849;48.758;9.158;2023-09-12T00:56:34;22.50;99.90
2212;DHT22;48849;48.758;9.158;2023-09-12T00:59:03;22.40;99.90
2212;DHT22;48849;48.758;9.158;2023-09-12T01:01:31;22.40;99.90
2212;DHT22;48849;48.758;9.158;2023-09-12T01:03:59;22.40;99.90
2212;DHT22;48849;48.758;9.158;2023-09-12T01:06:29;22.40;99.90
2212;DHT22;48849;48.758;9.158;2023-09-12T01:08:57;22.40;99.90
2212;DHT22;48849;48.758;9.158;2023-09-12T01:11:24;22.40;99.90
2212;DHT22;48849;48.758;9.158;2023-09-12T01:13:51;22.40;99.90
2212;DHT22;48849;48.758;9.158;2023-09-12T01:16:19;22.40;99.90
2212;DHT22;48849;48.758;9.158;2023-09-12T01:18:46;22.40;99.90
2212;DHT22;48849;48.758;9.158;2023-09-12T01:21:41;22.40;99.90
2212;DHT22;48849;48.758;9.158;2023-09-12T01:24:40;22.40;99.90
2212;DHT22;48849;48.758;9.158;2023-09-12T01:27:19;22.40;99.90
2212;DHT22;48849;48.758;9.158;2023-09-12T01:29:49;22.40;99.90
2212;DHT22;48849;48.758;9.158;2023-09-12T01:32:18;22.40;99.90
2212;DHT22;48849;48.758;9.158;2023-09-12T01:34:46;22.40;99.90
2212;DHT22;48849;48.758;9.158;2023-09-12T01:37:13;22.40;99.90
2212;DHT22;48849;48.758;9.158;2023-09-12T01:39:40;22.40;99.90
2212;DHT22;48849;48.758;9.158;2023-09-12T01:42:09;22.30;99.90
2212;DHT22;48849;48.758;9.158;2023-09-12T01:44:40;22.30;99.90
2212;DHT22;48849;48.758;9.158;2023-09-12T01:47:08;22.30;99.90
2212;DHT22;48849;48.758;9.158;2023-09-12T01:49:35;22.30;99.90
2212;DHT22;48849;48.758;9.158;2023-09-12T01:52:04;22.30;99.90
2212;DHT22;48849;48.758;9.158;2023-09-12T01:54:31;22.20;99.90
2212;DHT22;48849;48.758;9.158;2023-09-12T01:56:59;22.20;99.90
2212;DHT22;48849;48.758;9.158;2023-09-12T01:59:26;22.20;99.90
2212;DHT22;48849;48.758;9.158;2023-09-12T02:01:54;22.20;99.90
2212;DHT22;48849;48.758;9.158;2023-09-12T02:04:21;22.20;99.90
2212;DHT22;48849;48.758;9.158;2023-09-12T02:06:47;22.20;99.90
2212;DHT22;48849;48.758;9.158;2023-09-12T02:09:14;22.20;99.90
2212;DHT22;48849;48.758;9.158;2023-09-12T02:11:41;22.20;99.90
2212;DHT22;48849;48.758;9.158;2023-09-12T02:14:08;22.20;99.90
2212;DHT22;48849;48.758;9.158;2023-09-12T02:16:36;22.20;99.90
2212;DHT22;48849;48.758;9.158;2023-09-12T02:19:05;22.20;99.90
2212;DHT22;48849;48.758;9.158;2023-09-12T02:21:32;22.20;99.90
2212;DHT22;48849;48.758;9.158;2023-09-12T02:23:58;22.20;99.90
2212;DHT22;48849;48.758;9.158;2023-09-12T02:26:25;22.20;99.90
2212;DHT22;48849;48.758;9.158;2023-09-12T02:28:52;22.20;99.90
2212;DHT22;48849;48.758;9.158;2023-09-12T02:31:18;22.20;99.90
2212;DHT22;48849;48.758;9.158;2023-09-12T02:33:47;22.10;99.90
2212;DHT22;48849;48.758;9.158;2023-09-12T02:36:15;22.20;99.90
2212;DHT22;48849;48.758;9.158;2023-09-12T02:38:42;22.20;99.90
2212;DHT22;48849;48.758;9.158;2023-09-12T02:41:09;22.10;99.90
2212;DHT22;48849;48.758;9.158;2023-09-12T02:43:35;22.20;99.90
2212;DHT22;48849;48.758;9.158;2023-09-12T02:46:02;22.00;99.90
2212;DHT22;48849;48.758;9.158;2023-09-12T02:48:29;22.10;99.90
2212;DHT22;48849;48.758;9.158;2023-09-12T02:50:56;22.10;99.90
2212;DHT22;48849;48.758;9.158;2023-09-12T02:53:24;22.10;99.90
2212;DHT22;48849;48.758;9.158;2023-09-12T02:55:51;22.10;99.90
2212;DHT22;48849;48.758;9.158;2023-09-12T02:58:19;22.10;99.90
2212;DHT22;48849;48.758;9.158;2023-09-12T03:00:46;22.00;99.90
2212;DHT22;48849;48.758;9.158;2023-09-12T03:03:15;22.10;99.90
2212;DHT22;48849;48.758;9.158;2023-09-12T03:05:42;21.90;99.90
2212;DHT22;48849;48.758;9.158;2023-09-12T03:08:09;22.00;99.90
2212;DHT22;48849;48.758;9.158;2023-09-12T03:10:37;22.00;99.90
2212;DHT22;48849;48.758;9.158;2023-09-12T03:13:04;22.00;99.90
2212;DHT22;48849;48.758;9.158;2023-09-12T03:15:35;21.90;99.90
2212;DHT22;48849;48.758;9.158;2023-09-12T03:18:03;21.90;99.90
2212;DHT22;48849;48.758;9.158;2023-09-12T03:20:30;21.90;99.90
2212;DHT22;48849;48.758;9.158;2023-09-12T03:22:57;21.90;99.90
2212;DHT22;48849;48.758;9.158;2023-09-12T03:25:24;21.90;99.90
2212;DHT22;48849;48.758;9.158;2023-09-12T03:27:52;21.90;99.90
2212;DHT22;48849;48.758;9.158;2023-09-12T03:30:20;21.90;99.90
2212;DHT22;48849;48.758;9.158;2023-09-12T03:32:47;21.90;99.90
2212;DHT22;48849;48.758;9.158;2023-09-12T03:35:14;21.90;99.90
2212;DHT22;48849;48.758;9.158;2023-09-12T03:37:40;21.90;99.90
2212;DHT22;48849;48.758;9.158;2023-09-12T03:40:09;21.90;99.90
2212;DHT22;48849;48.758;9.158;2023-09-12T03:42:37;21.90;99.90
2212;DHT22;48849;48.758;9.158;2023-09-12T03:45:06;21.90;99.90
2212;DHT22;48849;48.758;9.158;2023-09-12T03:47:33;21.90;99.90
2212;DHT22;48849;48.758;9.158;2023-09-12T03:50:00;21.80;99.90
2212;DHT22;48849;48.758;9.158;2023-09-12T03:52:27;21.90;99.90
2212;DHT22;48849;48.758;9.158;2023-09-12T03:54:54;21.90;99.90
2212;DHT22;48849;48.758;9.158;2023-09-12T03:57:21;21.90;99.90
2212;DHT22;48849;48.758;9.158;2023-09-12T03:59:47;21.90;99.90
2212;DHT22;48849;48.758;9.158;2023-09-12T04:02:18;21.80;99.90
2212;DHT22;48849;48.758;9.158;2023-09-12T04:04:44;21.80;99.90
2212;DHT22;48849;48.758;9.158;2023-09-12T04:07:11;21.80;99.90
2212;DHT22;48849;48.758;9.158;2023-09-12T04:09:38;21.80;99.90
2212;DHT22;48849;48.758;9.158;2023-09-12T04:12:06;21.80;99.90
2212;DHT22;48849;48.758;9.158;2023-09-12T04:14:34;21.70;99.90
2212;DHT22;48849;48.758;9.158;2023-09-12T04:17:01;21.70;99.90
2212;DHT22;48849;48.758;9.158;2023-09-12T04:19:30;21.80;99.90
2212;DHT22;48849;48.758;9.158;2023-09-12T04:21:57;21.70;99.90
2212;DHT22;48849;48.758;9.158;2023-09-12T04:24:25;21.70;99.90
2212;DHT22;48849;48.758;9.158;2023-09-12T04:26:51;21.70;99.90
2212;DHT22;48849;48.758;9.158;2023-09-12T04:29:18;21.70;99.90
2212;DHT22;48849;48.758;9.158;2023-09-12T04:31:45;21.70;99.90
2212;DHT22;48849;48.758;9.158;2023-09-12T04:34:12;21.70;99.90
2212;DHT22;48849;48.758;9.158;2023-09-12T04:36:40;21.70;99.90
2212;DHT22;48849;48.758;9.158;2023-09-12T04:39:06;21.70;99.90
2212;DHT22;48849;48.758;9.158;2023-09-12T04:41:33;21.70;99.90
2212;DHT22;48849;48.758;9.158;2023-09-12T04:44:00;21.70;99.90
2212;DHT22;48849;48.758;9.158;2023-09-12T04:46:27;21.70;99.90
2212;DHT22;48849;48.758;9.158;2023-09-12T04:48:54;21.70;99.90
2212;DHT22;48849;48.758;9.158;2023-09-12T04:51:21;21.60;99.90
2212;DHT22;48849;48.758;9.158;2023-09-12T04:53:49;21.60;99.90
2212;DHT22;48849;48.758;9.158;2023-09-12T04:56:17;21.60;99.90
2212;DHT22;48849;48.758;9.158;2023-09-12T04:58:44;21.60;99.90
2212;DHT22;48849;48.758;9.158;2023-09-12T05:01:10;21.60;99.90
2212;DHT22;48849;48.758;9.158;2023-09-12T05:03:37;21.60;99.90
2212;DHT22;48849;48.758;9.158;2023-09-12T05:06:04;21.60;99.90
2212;DHT22;48849;48.758;9.158;2023-09-12T05:08:31;21.60;99.90
2212;DHT22;48849;48.758;9.158;2023-09-12T05:10:59;21.50;99.90
2212;DHT22;48849;48.758;9.158;2023-09-12T05:13:26;21.50;99.90
2212;DHT22;48849;48.758;9.158;2023-09-12T05:15:53;21.50;99.90
2212;DHT22;48849;48.758;9.158;2023-09-12T05:18:21;21.60;99.90
2212;DHT22;48849;48.758;9.158;2023-09-12T05:20:48;21.60;99.90
2212;DHT22;48849;48.758;9.158;2023-09-12T05:23:14;21.50;99.90
2212;DHT22;48849;48.758;9.158;2023-09-12T05:25:41;21.60;99.90
2212;DHT22;48849;48.758;9.158;2023-09-12T05:28:09;21.60;99.90
2212;DHT22;48849;48.758;9.158;2023-09-12T05:30:36;21.70;99.90
2212;DHT22;48849;48.758;9.158;2023-09-12T05:33:03;21.80;99.90
2212;DHT22;48849;48.758;9.158;2023-09-12T05:35:30;21.70;99.90
2212;DHT22;48849;48.758;9.158;2023-09-12T05:37:57;21.70;99.90
2212;DHT22;48849;48.758;9.158;2023-09-12T05:40:24;21.70;99.90
2212;DHT22;48849;48.758;9.158;2023-09-12T05:42:50;21.70;99.90
2212;DHT22;48849;48.758;9.158;2023-09-12T05:45:19;21.80;99.90
2212;DHT22;48849;48.758;9.158;2023-09-12T05:47:45;21.80;99.90
2212;DHT22;48849;48.758;9.158;2023-09-12T05:50:13;21.80;99.90
2212;DHT22;48849;48.758;9.158;2023-09-12T05:52:40;21.80;99.90
2212;DHT22;48849;48.758;9.158;2023-09-12T05:55:08;21.80;99.90
2212;DHT22;48849;48.758;9.158;2023-09-12T05:57:35;21.80;99.90
2212;DHT22;48849;48.758;9.158;2023-09-12T06:00:21;21.80;99.90
2212;DHT22;48849;48.758;9.158;2023-09-12T06:02:51;21.90;99.90
2212;DHT22;48849;48.758;9.158;2023-09-12T06:05:18;21.90;99.90
2212;DHT22;48849;48.758;9.158;2023-09-12T06:07:45;21.90;99.90
2212;DHT22;48849;48.758;9.158;2023-09-12T06:10:12;21.90;99.90
2212;DHT22;48849;48.758;9.158;2023-09-12T06:12:39;21.90;99.90
2212;DHT22;48849;48.758;9.158;2023-09-12T06:15:06;21.80;99.90
2212;DHT22;48849;48.758;9.158;2023-09-12T06:17:34;22.00;99.90
2212;DHT22;48849;48.758;9.158;2023-09-12T06:20:01;22.00;99.90
2212;DHT22;48849;48.758;9.158;2023-09-12T06:22:29;22.10;99.90
2212;DHT22;48849;48.758;9.158;2023-09-12T06:24:56;22.20;99.90
2212;DHT22;48849;48.758;9.158;2023-09-12T06:27:22;22.10;99.90
2212;DHT22;48849;48.758;9.158;2023-09-12T06:29:49;22.10;99.90
2212;DHT22;48849;48.758;9.158;2023-09-12T06:32:17;22.10;99.90
2212;DHT22;48849;48.758;9.158;2023-09-12T06:34:45;22.20;99.90
2212;DHT22;48849;48.758;9.158;2023-09-12T06:37:13;22.20;99.90
2212;DHT22;48849;48.758;9.158;2023-09-12T06:39:40;22.20;99.90
2212;DHT22;48849;48.758;9.158;2023-09-12T06:42:08;22.20;99.90
2212;DHT22;48849;48.758;9.158;2023-09-12T06:44:35;22.20;99.90
2212;DHT22;48849;48.758;9.158;2023-09-12T06:47:03;22.20;99.90
2212;DHT22;48849;48.758;9.158;2023-09-12T06:49:30;22.20;99.90
2212;DHT22;48849;48.758;9.158;2023-09-12T06:52:00;22.20;99.90
2212;DHT22;48849;48.758;9.158;2023-09-12T06:54:27;22.20;99.90
2212;DHT22;48849;48.758;9.158;2023-09-12T06:56:53;22.20;99.90
2212;DHT22;48849;48.758;9.158;2023-09-12T06:59:20;22.20;99.90
2212;DHT22;48849;48.758;9.158;2023-09-12T07:01:47;22.20;99.90
2212;DHT22;48849;48.758;9.158;2023-09-12T07:04:14;22.20;99.90
2212;DHT22;48849;48.758;9.158;2023-09-12T07:06:41;22.20;99.90
2212;DHT22;48849;48.758;9.158;2023-09-12T07:09:09;22.20;99.90
2212;DHT22;48849;48.758;9.158;2023-09-12T07:11:39;22.30;99.90
2212;DHT22;48849;48.758;9.158;2023-09-12T07:14:06;22.20;99.90
2212;DHT22;48849;48.758;9.158;2023-09-12T07:16:33;22.20;99.90
2212;DHT22;48849;48.758;9.158;2023-09-12T07:19:00;22.30;99.90
2212;DHT22;48849;48.758;9.158;2023-09-12T07:21:26;22.20;99.90
2212;DHT22;48849;48.758;9.158;2023-09-12T07:23:53;22.20;99.90
2212;DHT22;48849;48.758;9.158;2023-09-12T07:26:22;22.20;99.90
2212;DHT22;48849;48.758;9.158;2023-09-12T07:28:48;22.20;99.90
2212;DHT22;48849;48.758;9.158;2023-09-12T07:31:15;22.30;99.90
2212;DHT22;48849;48.758;9.158;2023-09-12T07:33:43;22.30;99.90
2212;DHT22;48849;48.758;9.158;2023-09-12T07:36:10;22.20;99.90
2212;DHT22;48849;48.758;9.158;2023-09-12T07:38:37;22.20;99.90
2212;DHT22;48849;48.758;9.158;2023-09-12T07:41:04;22.20;99.90
2212;DHT22;48849;48.758;9.158;2023-09-12T07:43:32;22.20;99.90
2212;DHT22;48849;48.758;9.158;2023-09-12T07:45:59;22.30;99.90
2212;DHT22;48849;48.758;9.158;2023-09-12T07:48:26;22.30;99.90
2212;DHT22;48849;48.758;9.158;2023-09-12T07:50:53;22.30;99.90
2212;DHT22;48849;48.758;9.158;2023-09-12T07:53:20;22.30;99.90
2212;DHT22;48849;48.758;9.158;2023-09-12T07:55:48;22.30;99.90
2212;DHT22;48849;48.758;9.158;2023-09-12T07:58:15;22.30;99.90
2212;DHT22;48849;48.758;9.158;2023-09-12T08:00:45;22.40;99.90
2212;DHT22;48849;48.758;9.158;2023-09-12T08:03:12;22.40;99.90
2212;DHT22;48849;48.758;9.158;2023-09-12T08:05:39;22.40;99.90
2212;DHT22;48849;48.758;9.158;2023-09-12T08:08:05;22.40;99.90
2212;DHT22;48849;48.758;9.158;2023-09-12T08:10:32;22.50;99.90
2212;DHT22;48849;48.758;9.158;2023-09-12T08:12:59;22.50;99.90
2212;DHT22;48849;48.758;9.158;2023-09-12T08:15:26;22.50;99.90
2212;DHT22;48849;48.758;9.158;2023-09-12T08:17:55;22.60;99.90
2212;DHT22;48849;48.758;9.158;2023-09-12T08:20:21;22.60;99.90
2212;DHT22;48849;48.758;9.158;2023-09-12T08:22:48;22.60;99.90
2212;DHT22;48849;48.758;9.158;2023-09-12T08:25:15;22.60;99.90
2212;DHT22;48849;48.758;9.158;2023-09-12T08:27:42;22.60;99.90
2212;DHT22;48849;48.758;9.158;2023-09-12T08:30:10;22.60;99.90
2212;DHT22;48849;48.758;9.158;2023-09-12T08:32:38;22.70;99.90
2212;DHT22;48849;48.758;9.158;2023-09-12T08:35:10;22.70;99.90
2212;DHT22;48849;48.758;9.158;2023-09-12T08:37:38;22.70;99.90
2212;DHT22;48849;48.758;9.158;2023-09-12T08:40:06;22.70;99.90
2212;DHT22;48849;48.758;9.158;2023-09-12T08:42:38;22.70;99.90
2212;DHT22;48849;48.758;9.158;2023-09-12T08:45:08;22.70;99.90
2212;DHT22;48849;48.758;9.158;2023-09-12T08:47:39;22.80;99.90
2212;DHT22;48849;48.758;9.158;2023-09-12T08:50:10;22.70;99.90
2212;DHT22;48849;48.758;9.158;2023-09-12T08:52:38;22.80;99.90
2212;DHT22;48849;48.758;9.158;2023-09-12T08:55:05;22.70;99.90
2212;DHT22;48849;48.758;9.158;2023-09-12T08:57:33;22.80;99.90
2212;DHT22;48849;48.758;9.158;2023-09-12T09:00:02;22.80;99.90
2212;DHT22;48849;48.758;9.158;2023-09-12T09:02:31;22.80;99.90
2212;DHT22;48849;48.758;9.158;2023-09-12T09:04:59;22.90;99.90
2212;DHT22;48849;48.758;9.158;2023-09-12T09:07:29;22.90;99.90
2212;DHT22;48849;48.758;9.158;2023-09-12T09:09:56;22.90;99.90
2212;DHT22;48849;48.758;9.158;2023-09-12T09:12:23;22.90;99.90
2212;DHT22;48849;48.758;9.158;2023-09-12T09:14:49;22.90;99.90
2212;DHT22;48849;48.758;9.158;2023-09-12T09:17:16;22.90;99.90
2212;DHT22;48849;48.758;9.158;2023-09-12T09:19:44;23.00;99.90
2212;DHT22;48849;48.758;9.158;2023-09-12T09:22:11;23.00;99.90
2212;DHT22;48849;48.758;9.158;2023-09-12T09:24:39;23.00;99.90
2212;DHT22;48849;48.758;9.158;2023-09-12T09:27:06;23.10;99.90
2212;DHT22;48849;48.758;9.158;2023-09-12T09:29:45;23.00;99.90
2212;DHT22;48849;48.758;9.158;2023-09-12T09:32:17;23.00;99.90
2212;DHT22;48849;48.758;9.158;2023-09-12T09:34:44;23.00;99.90
2212;DHT22;48849;48.758;9.158;2023-09-12T09:37:10;23.10;99.90
2212;DHT22;48849;48.758;9.158;2023-09-12T09:39:39;23.10;99.90
2212;DHT22;48849;48.758;9.158;2023-09-12T09:42:10;23.10;99.90
2212;DHT22;48849;48.758;9.158;2023-09-12T09:44:37;23.10;99.90
2212;DHT22;48849;48.758;9.158;2023-09-12T09:47:04;23.20;99.90
2212;DHT22;48849;48.758;9.158;2023-09-12T09:49:31;23.20;99.90
2212;DHT22;48849;48.758;9.158;2023-09-12T09:51:59;23.30;99.90
2212;DHT22;48849;48.758;9.158;2023-09-12T09:54:29;23.20;99.90
2212;DHT22;48849;48.758;9.158;2023-09-12T09:56:57;23.20;99.90
2212;DHT22;48849;48.758;9.158;2023-09-12T09:59:26;23.20;99.90
2212;DHT22;48849;48.758;9.158;2023-09-12T10:01:57;23.20;99.90
2212;DHT22;48849;48.758;9.158;2023-09-12T10:04:27;23.30;99.90
2212;DHT22;48849;48.758;9.158;2023-09-12T10:06:56;23.30;99.90
2212;DHT22;48849;48.758;9.158;2023-09-12T10:09:26;23.40;99.90
2212;DHT22;48849;48.758;9.158;2023-09-12T10:11:55;23.40;99.90
2212;DHT22;48849;48.758;9.158;2023-09-12T10:14:24;23.40;99.90
2212;DHT22;48849;48.758;9.158;2023-09-12T10:16:57;23.40;99.90
2212;DHT22;48849;48.758;9.158;2023-09-12T10:19:29;23.50;99.90
2212;DHT22;48849;48.758;9.158;2023-09-12T10:22:05;23.50;99.90
2212;DHT22;48849;48.758;9.158;2023-09-12T10:24:35;23.50;99.90
2212;DHT22;48849;48.758;9.158;2023-09-12T10:27:02;23.60;99.90
2212;DHT22;48849;48.758;9.158;2023-09-12T10:29:31;23.60;99.90
2212;DHT22;48849;48.758;9.158;2023-09-12T10:31:58;23.70;99.90
2212;DHT22;48849;48.758;9.158;2023-09-12T10:34:26;23.70;99.90
2212;DHT22;48849;48.758;9.158;2023-09-12T10:36:55;23.70;99.90
2212;DHT22;48849;48.758;9.158;2023-09-12T10:39:24;23.70;99.90
2212;DHT22;48849;48.758;9.158;2023-09-12T10:41:54;23.70;99.90
2212;DHT22;48849;48.758;9.158;2023-09-12T10:44:56;23.80;99.90
2212;DHT22;48849;48.758;9.158;2023-09-12T10:47:24;23.80;99.90
2212;DHT22;48849;48.758;9.158;2023-09-12T10:49:51;23.80;99.90
2212;DHT22;48849;48.758;9.158;2023-09-12T10:52:24;23.90;99.90
2212;DHT22;48849;48.758;9.158;2023-09-12T10:54:52;23.90;99.90
2212;DHT22;48849;48.758;9.158;2023-09-12T10:57:19;23.90;99.90
2212;DHT22;48849;48.758;9.158;2023-09-12T11:00:11;23.90;99.90
2212;DHT22;48849;48.758;9.158;2023-09-12T11:02:39;24.00;99.90
2212;DHT22;48849;48.758;9.158;2023-09-12T11:05:36;24.00;99.90
2212;DHT22;48849;48.758;9.158;2023-09-12T11:08:03;24.10;99.90
2212;DHT22;48849;48.758;9.158;2023-09-12T11:10:30;24.10;99.90
2212;DHT22;48849;48.758;9.158;2023-09-12T11:12:58;24.20;99.90
2212;DHT22;48849;48.758;9.158;2023-09-12T11:15:27;24.30;99.90
2212;DHT22;48849;48.758;9.158;2023-09-12T11:18:02;24.40;99.90
2212;DHT22;48849;48.758;9.158;2023-09-12T11:20:53;24.50;99.90
2212;DHT22;48849;48.758;9.158;2023-09-12T11:23:25;24.90;99.90
2212;DHT22;48849;48.758;9.158;2023-09-12T11:26:03;25.40;99.90
2212;DHT22;48849;48.758;9.158;2023-09-12T11:28:31;25.80;99.90
2212;DHT22;48849;48.758;9.158;2023-09-12T11:30:59;26.20;99.90
2212;DHT22;48849;48.758;9.158;2023-09-12T11:33:26;26.40;99.90
2212;DHT22;48849;48.758;9.158;2023-09-12T11:35:54;26.60;99.90
2212;DHT22;48849;48.758;9.158;2023-09-12T11:38:27;27.00;99.90
2212;DHT22;48849;48.758;9.158;2023-09-12T11:40:55;27.40;99.90
2212;DHT22;48849;48.758;9.158;2023-09-12T11:43:23;27.80;99.90
2212;DHT22;48849;48.758;9.158;2023-09-12T11:45:50;28.00;99.90
2212;DHT22;48849;48.758;9.158;2023-09-12T11:48:19;28.10;99.90
2212;DHT22;48849;48.758;9.158;2023-09-12T11:50:51;28.10;99.90
2212;DHT22;48849;48.758;9.158;2023-09-12T11:53:20;28.10;99.90
2212;DHT22;48849;48.758;9.158;2023-09-12T11:55:52;28.10;99.90
2212;DHT22;48849;48.758;9.158;2023-09-12T11:58:19;28.20;99.90
2212;DHT22;48849;48.758;9.158;2023-09-12T12:00:48;28.10;99.90
2212;DHT22;48849;48.758;9.158;2023-09-12T12:03:17;28.20;99.90
2212;DHT22;48849;48.758;9.158;2023-09-12T12:05:45;28.30;99.90
2212;DHT22;48849;48.758;9.158;2023-09-12T12:08:12;28.30;99.90
2212;DHT22;48849;48.758;9.158;2023-09-12T12:10:39;28.30;99.90
2212;DHT22;48849;48.758;9.158;2023-09-12T12:13:10;28.30;99.90
2212;DHT22;48849;48.758;9.158;2023-09-12T12:15:37;28.30;99.90
2212;DHT22;48849;48.758;9.158;2023-09-12T12:18:04;28.20;99.90
2212;DHT22;48849;48.758;9.158;2023-09-12T12:20:31;28.20;99.90
2212;DHT22;48849;48.758;9.158;2023-09-12T12:22:59;28.20;99.90
2212;DHT22;48849;48.758;9.158;2023-09-12T12:25:26;28.00;99.90
2212;DHT22;48849;48.758;9.158;2023-09-12T12:27:53;27.90;99.90
2212;DHT22;48849;48.758;9.158;2023-09-12T12:30:19;27.80;99.90
2212;DHT22;48849;48.758;9.158;2023-09-12T12:32:46;27.80;99.90
2212;DHT22;48849;48.758;9.158;2023-09-12T12:35:17;27.80;99.90
2212;DHT22;48849;48.758;9.158;2023-09-12T12:37:44;27.80;99.90
2212;DHT22;48849;48.758;9.158;2023-09-12T12:40:13;27.80;99.90
2212;DHT22;48849;48.758;9.158;2023-09-12T12:42:41;27.80;99.90
2212;DHT22;48849;48.758;9.158;2023-09-12T12:45:11;27.70;99.90
2212;DHT22;48849;48.758;9.158;2023-09-12T12:47:39;27.60;99.90
2212;DHT22;48849;48.758;9.158;2023-09-12T12:50:08;27.50;99.90
2212;DHT22;48849;48.758;9.158;2023-09-12T12:52:35;27.50;99.90
2212;DHT22;48849;48.758;9.158;2023-09-12T12:55:06;27.50;99.90
2212;DHT22;48849;48.758;9.158;2023-09-12T12:57:41;27.50;99.90
2212;DHT22;48849;48.758;9.158;2023-09-12T13:00:12;27.50;99.90
2212;DHT22;48849;48.758;9.158;2023-09-12T13:02:43;27.40;99.90
2212;DHT22;48849;48.758;9.158;2023-09-12T13:05:20;27.30;99.90
2212;DHT22;48849;48.758;9.158;2023-09-12T13:07:50;27.10;99.90
2212;DHT22;48849;48.758;9.158;2023-09-12T13:10:17;27.00;99.90
2212;DHT22;48849;48.758;9.158;2023-09-12T13:12:46;26.80;99.90
2212;DHT22;48849;48.758;9.158;2023-09-12T13:15:19;26.70;99.90
2212;DHT22;48849;48.758;9.158;2023-09-12T13:18:04;26.60;99.90
2212;DHT22;48849;48.758;9.158;2023-09-12T13:20:31;26.60;99.90
2212;DHT22;48849;48.758;9.158;2023-09-12T13:22:58;26.50;99.90
2212;DHT22;48849;48.758;9.158;2023-09-12T13:25:28;26.40;99.90
2212;DHT22;48849;48.758;9.158;2023-09-12T13:27:57;26.40;99.90
2212;DHT22;48849;48.758;9.158;2023-09-12T13:30:26;26.30;99.90
2212;DHT22;48849;48.758;9.158;2023-09-12T13:32:55;26.30;99.90
2212;DHT22;48849;48.758;9.158;2023-09-12T13:35:21;26.20;99.90
2212;DHT22;48849;48.758;9.158;2023-09-12T13:37:54;26.20;99.90
2212;DHT22;48849;48.758;9.158;2023-09-12T13:40:24;26.20;99.90
2212;DHT22;48849;48.758;9.158;2023-09-12T13:42:53;26.10;99.90
2212;DHT22;48849;48.758;9.158;2023-09-12T13:45:32;26.10;99.90
2212;DHT22;48849;48.758;9.158;2023-09-12T13:48:03;26.00;99.90
2212;DHT22;48849;48.758;9.158;2023-09-12T13:50:35;25.90;99.90
2212;DHT22;48849;48.758;9.158;2023-09-12T13:53:04;25.90;99.90
2212;DHT22;48849;48.758;9.158;2023-09-12T13:55:34;25.80;99.90
2212;DHT22;48849;48.758;9.158;2023-09-12T13:58:02;25.80;99.90
2212;DHT22;48849;48.758;9.158;2023-09-12T14:00:31;25.70;99.90
2212;DHT22;48849;48.758;9.158;2023-09-12T14:02:58;25.70;99.90
2212;DHT22;48849;48.758;9.158;2023-09-12T14:05:27;25.70;99.90
2212;DHT22;48849;48.758;9.158;2023-09-12T14:07:54;25.60;99.90
2212;DHT22;48849;48.758;9.158;2023-09-12T14:10:21;25.60;99.90
2212;DHT22;48849;48.758;9.158;2023-09-12T14:12:51;25.60;99.90
2212;DHT22;48849;48.758;9.158;2023-09-12T14:15:18;25.60;99.90
2212;DHT22;48849;48.758;9.158;2023-09-12T14:17:47;25.60;99.90
2212;DHT22;48849;48.758;9.158;2023-09-12T14:20:20;25.60;99.90
2212;DHT22;48849;48.758;9.158;2023-09-12T14:22:47;25.50;99.90
2212;DHT22;48849;48.758;9.158;2023-09-12T14:25:13;25.50;99.90
2212;DHT22;48849;48.758;9.158;2023-09-12T14:27:42;25.50;99.90
2212;DHT22;48849;48.758;9.158;2023-09-12T14:30:13;25.50;99.90
2212;DHT22;48849;48.758;9.158;2023-09-12T14:32:54;25.30;99.90
2212;DHT22;48849;48.758;9.158;2023-09-12T14:35:48;25.40;99.90
2212;DHT22;48849;48.758;9.158;2023-09-12T14:38:22;25.30;99.90
2212;DHT22;48849;48.758;9.158;2023-09-12T14:41:03;25.30;99.90
2212;DHT22;48849;48.758;9.158;2023-09-12T14:43:35;25.30;99.90
2212;DHT22;48849;48.758;9.158;2023-09-12T14:46:04;25.30;99.90
2212;DHT22;48849;48.758;9.158;2023-09-12T14:48:37;25.20;99.90
2212;DHT22;48849;48.758;9.158;2023-09-12T14:51:07;25.20;99.90
2212;DHT22;48849;48.758;9.158;2023-09-12T14:53:34;25.20;99.90
2212;DHT22;48849;48.758;9.158;2023-09-12T14:56:01;25.10;99.90
2212;DHT22;48849;48.758;9.158;2023-09-12T14:58:28;25.20;99.90
2212;DHT22;48849;48.758;9.158;2023-09-12T15:01:04;25.20;99.90
2212;DHT22;48849;48.758;9.158;2023-09-12T15:03:44;25.10;99.90
2212;DHT22;48849;48.758;9.158;2023-09-12T15:06:13;25.10;99.90
2212;DHT22;48849;48.758;9.158;2023-09-12T15:08:52;25.10;99.90
2212;DHT22;48849;48.758;9.158;2023-09-12T15:11:30;25.10;99.90
2212;DHT22;48849;48.758;9.158;2023-09-12T15:14:05;25.10;99.90
2212;DHT22;48849;48.758;9.158;2023-09-12T15:16:39;25.00;99.90
2212;DHT22;48849;48.758;9.158;2023-09-12T15:19:14;25.00;99.90
2212;DHT22;48849;48.758;9.158;2023-09-12T15:21:55;25.00;99.90
2212;DHT22;48849;48.758;9.158;2023-09-12T15:24:46;25.00;99.90
2212;DHT22;48849;48.758;9.158;2023-09-12T15:27:13;25.00;99.90
2212;DHT22;48849;48.758;9.158;2023-09-12T15:29:45;25.00;99.90
2212;DHT22;48849;48.758;9.158;2023-09-12T15:32:14;25.00;99.90
2212;DHT22;48849;48.758;9.158;2023-09-12T15:34:49;25.00;99.90
2212;DHT22;48849;48.758;9.158;2023-09-12T15:37:21;25.00;99.90
2212;DHT22;48849;48.758;9.158;2023-09-12T15:39:50;24.80;99.90
2212;DHT22;48849;48.758;9.158;2023-09-12T15:42:20;24.90;99.90
2212;DHT22;48849;48.758;9.158;2023-09-12T15:44:54;24.90;99.90
2212;DHT22;48849;48.758;9.158;2023-09-12T15:47:27;24.80;99.90
2212;DHT22;48849;48.758;9.158;2023-09-12T15:49:58;24.80;99.90
2212;DHT22;48849;48.758;9.158;2023-09-12T15:52:39;24.80;99.90
2212;DHT22;48849;48.758;9.158;2023-09-12T15:55:16;24.80;99.90
2212;DHT22;48849;48.758;9.158;2023-09-12T15:57:46;24.80;99.90